sensor_id;sensor_type;location;lat;lon;timestamp;P1;durP1;ratioP1;P2;durP2;ratioP2
35306;SDS011;21420;52.196;21.416;2022-11-13T00:00:20;55.15;;;42.73;;
35306;SDS011;21420;52.196;21.416;2022-11-13T00:03:06;53.20;;;42.65;;
35306;SDS011;21420;52.196;21.416;2022-11-13T00:06:00;56.48;;;41.75;;
35306;SDS011;21420;52.196;21.416;2022-11-13T00:08:45;54.38;;;40.35;;
35306;SDS011;21420;52.196;21.416;2022-11-13T00:11:31;52.43;;;42.45;;
35306;SDS011;21420;52.196;21.416;2022-11-13T00:14:16;50.50;;;40.08;;
35306;SDS011;21420;52.196;21.416;2022-11-13T00:17:01;48.58;;;39.65;;
35306;SDS011;21420;52.196;21.416;2022-11-13T00:19:46;49.67;;;39.27;;
35306;SDS011;21420;52.196;21.416;2022-11-13T00:22:32;48.92;;;39.08;;
35306;SDS011;21420;52.196;21.416;2022-11-13T00:25:17;43.90;;;36.03;;
35306;SDS011;21420;52.196;21.416;2022-11-13T00:28:02;45.08;;;37.08;;
35306;SDS011;21420;52.196;21.416;2022-11-13T00:30:47;43.30;;;35.20;;
35306;SDS011;21420;52.196;21.416;2022-11-13T00:33:32;44.88;;;36.03;;
35306;SDS011;21420;52.196;21.416;2022-11-13T00:36:18;43.80;;;34.83;;
35306;SDS011;21420;52.196;21.416;2022-11-13T00:39:06;43.05;;;35.92;;
35306;SDS011;21420;52.196;21.416;2022-11-13T00:41:51;41.23;;;33.83;;
35306;SDS011;21420;52.196;21.416;2022-11-13T00:44:36;42.27;;;34.40;;
35306;SDS011;21420;52.196;21.416;2022-11-13T00:47:20;40.60;;;33.53;;
35306;SDS011;21420;52.196;21.416;2022-11-13T00:50:05;42.20;;;33.55;;
35306;SDS011;21420;52.196;21.416;2022-11-13T00:52:50;42.70;;;33.18;;
35306;SDS011;21420;52.196;21.416;2022-11-13T00:55:35;39.30;;;32.35;;
35306;SDS011;21420;52.196;21.416;2022-11-13T00:58:20;38.67;;;32.53;;
35306;SDS011;21420;52.196;21.416;2022-11-13T01:01:13;37.75;;;31.65;;
35306;SDS011;21420;52.196;21.416;2022-11-13T01:03:57;43.20;;;32.25;;
35306;SDS011;21420;52.196;21.416;2022-11-13T01:06:43;39.08;;;30.55;;
35306;SDS011;21420;52.196;21.416;2022-11-13T01:09:28;39.58;;;31.80;;
35306;SDS011;21420;52.196;21.416;2022-11-13T01:12:12;38.90;;;29.87;;
35306;SDS011;21420;52.196;21.416;2022-11-13T01:14:57;38.83;;;30.72;;
35306;SDS011;21420;52.196;21.416;2022-11-13T01:17:43;39.83;;;31.17;;
35306;SDS011;21420;52.196;21.416;2022-11-13T01:20:28;38.15;;;30.10;;
35306;SDS011;21420;52.196;21.416;2022-11-13T01:23:13;38.73;;;31.12;;
35306;SDS011;21420;52.196;21.416;2022-11-13T01:26:08;35.83;;;29.37;;
35306;SDS011;21420;52.196;21.416;2022-11-13T01:28:59;38.08;;;31.42;;
35306;SDS011;21420;52.196;21.416;2022-11-13T01:31:44;36.68;;;29.72;;
35306;SDS011;21420;52.196;21.416;2022-11-13T01:34:28;36.20;;;29.45;;
35306;SDS011;21420;52.196;21.416;2022-11-13T01:37:13;36.33;;;29.77;;
35306;SDS011;21420;52.196;21.416;2022-11-13T01:39:58;36.20;;;28.45;;
35306;SDS011;21420;52.196;21.416;2022-11-13T01:42:47;39.08;;;30.08;;
35306;SDS011;21420;52.196;21.416;2022-11-13T01:51:58;37.48;;;29.40;;
35306;SDS011;21420;52.196;21.416;2022-11-13T01:54:49;37.33;;;28.77;;
35306;SDS011;21420;52.196;21.416;2022-11-13T01:57:52;37.40;;;28.80;;
35306;SDS011;21420;52.196;21.416;2022-11-13T02:00:36;33.45;;;27.05;;
35306;SDS011;21420;52.196;21.416;2022-11-13T02:03:21;34.80;;;28.40;;
35306;SDS011;21420;52.196;21.416;2022-11-13T02:06:05;32.08;;;26.57;;
35306;SDS011;21420;52.196;21.416;2022-11-13T02:08:51;36.70;;;27.65;;
35306;SDS011;21420;52.196;21.416;2022-11-13T02:11:36;34.00;;;27.52;;
35306;SDS011;21420;52.196;21.416;2022-11-13T02:14:22;33.30;;;26.80;;
35306;SDS011;21420;52.196;21.416;2022-11-13T02:17:12;32.08;;;26.80;;
35306;SDS011;21420;52.196;21.416;2022-11-13T02:19:59;32.75;;;26.37;;
35306;SDS011;21420;52.196;21.416;2022-11-13T02:25:55;30.45;;;24.87;;
35306;SDS011;21420;52.196;21.416;2022-11-13T02:28:41;30.92;;;24.92;;
35306;SDS011;21420;52.196;21.416;2022-11-13T02:31:26;32.23;;;25.72;;
35306;SDS011;21420;52.196;21.416;2022-11-13T02:34:10;30.92;;;25.32;;
35306;SDS011;21420;52.196;21.416;2022-11-13T02:36:55;29.67;;;24.67;;
35306;SDS011;21420;52.196;21.416;2022-11-13T02:39:40;30.75;;;25.48;;
35306;SDS011;21420;52.196;21.416;2022-11-13T02:42:24;30.97;;;25.62;;
35306;SDS011;21420;52.196;21.416;2022-11-13T02:45:09;29.30;;;24.15;;
35306;SDS011;21420;52.196;21.416;2022-11-13T02:47:54;25.92;;;22.77;;
35306;SDS011;21420;52.196;21.416;2022-11-13T02:50:38;25.72;;;22.45;;
35306;SDS011;21420;52.196;21.416;2022-11-13T02:53:25;25.30;;;22.15;;
35306;SDS011;21420;52.196;21.416;2022-11-13T02:56:09;25.65;;;21.93;;
35306;SDS011;21420;52.196;21.416;2022-11-13T02:58:54;25.43;;;21.27;;
35306;SDS011;21420;52.196;21.416;2022-11-13T03:01:39;23.87;;;21.25;;
35306;SDS011;21420;52.196;21.416;2022-11-13T03:04:23;27.13;;;22.60;;
35306;SDS011;21420;52.196;21.416;2022-11-13T03:07:08;26.42;;;21.73;;
35306;SDS011;21420;52.196;21.416;2022-11-13T03:09:52;23.57;;;20.57;;
35306;SDS011;21420;52.196;21.416;2022-11-13T03:12:37;26.00;;;21.48;;
35306;SDS011;21420;52.196;21.416;2022-11-13T03:18:32;24.50;;;20.82;;
35306;SDS011;21420;52.196;21.416;2022-11-13T03:21:16;27.52;;;21.55;;
35306;SDS011;21420;52.196;21.416;2022-11-13T03:24:01;25.20;;;20.85;;
35306;SDS011;21420;52.196;21.416;2022-11-13T03:26:45;25.57;;;21.15;;
35306;SDS011;21420;52.196;21.416;2022-11-13T03:29:30;23.32;;;20.32;;
35306;SDS011;21420;52.196;21.416;2022-11-13T03:32:15;22.22;;;19.15;;
35306;SDS011;21420;52.196;21.416;2022-11-13T03:34:59;24.00;;;20.75;;
35306;SDS011;21420;52.196;21.416;2022-11-13T03:37:44;22.95;;;20.30;;
35306;SDS011;21420;52.196;21.416;2022-11-13T03:40:29;23.42;;;20.15;;
35306;SDS011;21420;52.196;21.416;2022-11-13T03:43:13;21.60;;;19.30;;
35306;SDS011;21420;52.196;21.416;2022-11-13T03:45:59;24.10;;;20.40;;
35306;SDS011;21420;52.196;21.416;2022-11-13T03:48:43;21.62;;;19.32;;
35306;SDS011;21420;52.196;21.416;2022-11-13T03:51:28;27.10;;;20.00;;
35306;SDS011;21420;52.196;21.416;2022-11-13T03:54:13;24.77;;;20.45;;
35306;SDS011;21420;52.196;21.416;2022-11-13T03:56:57;22.87;;;19.67;;
35306;SDS011;21420;52.196;21.416;2022-11-13T03:59:42;22.13;;;19.55;;
35306;SDS011;21420;52.196;21.416;2022-11-13T04:02:26;25.23;;;20.92;;
35306;SDS011;21420;52.196;21.416;2022-11-13T04:05:11;23.70;;;20.12;;
35306;SDS011;21420;52.196;21.416;2022-11-13T04:07:55;23.10;;;20.50;;
35306;SDS011;21420;52.196;21.416;2022-11-13T04:10:40;23.05;;;20.55;;
35306;SDS011;21420;52.196;21.416;2022-11-13T04:13:25;23.77;;;20.12;;
35306;SDS011;21420;52.196;21.416;2022-11-13T04:16:09;27.25;;;20.77;;
35306;SDS011;21420;52.196;21.416;2022-11-13T04:18:54;25.08;;;20.65;;
35306;SDS011;21420;52.196;21.416;2022-11-13T04:21:39;25.02;;;20.17;;
35306;SDS011;21420;52.196;21.416;2022-11-13T04:24:23;25.02;;;19.55;;
35306;SDS011;21420;52.196;21.416;2022-11-13T04:27:08;26.65;;;20.52;;
35306;SDS011;21420;52.196;21.416;2022-11-13T04:29:52;22.75;;;18.65;;
35306;SDS011;21420;52.196;21.416;2022-11-13T04:32:37;25.68;;;20.32;;
35306;SDS011;21420;52.196;21.416;2022-11-13T04:35:22;24.75;;;20.60;;
35306;SDS011;21420;52.196;21.416;2022-11-13T04:38:06;24.52;;;20.17;;
35306;SDS011;21420;52.196;21.416;2022-11-13T04:40:51;24.00;;;19.25;;
35306;SDS011;21420;52.196;21.416;2022-11-13T04:43:41;22.73;;;19.20;;
35306;SDS011;21420;52.196;21.416;2022-11-13T04:46:25;25.52;;;19.40;;
35306;SDS011;21420;52.196;21.416;2022-11-13T04:49:10;22.10;;;18.37;;
35306;SDS011;21420;52.196;21.416;2022-11-13T04:51:55;24.65;;;19.60;;
35306;SDS011;21420;52.196;21.416;2022-11-13T04:54:39;22.90;;;18.62;;
35306;SDS011;21420;52.196;21.416;2022-11-13T04:57:24;22.40;;;18.50;;
35306;SDS011;21420;52.196;21.416;2022-11-13T05:00:09;26.80;;;18.65;;
35306;SDS011;21420;52.196;21.416;2022-11-13T05:02:55;24.10;;;18.90;;
35306;SDS011;21420;52.196;21.416;2022-11-13T05:05:39;22.15;;;18.73;;
35306;SDS011;21420;52.196;21.416;2022-11-13T05:08:24;23.98;;;19.25;;
35306;SDS011;21420;52.196;21.416;2022-11-13T05:11:09;26.02;;;20.90;;
35306;SDS011;21420;52.196;21.416;2022-11-13T05:13:53;25.50;;;20.90;;
35306;SDS011;21420;52.196;21.416;2022-11-13T05:16:38;24.60;;;20.45;;
35306;SDS011;21420;52.196;21.416;2022-11-13T05:19:23;25.62;;;19.23;;
35306;SDS011;21420;52.196;21.416;2022-11-13T05:22:08;25.08;;;19.40;;
35306;SDS011;21420;52.196;21.416;2022-11-13T05:24:52;26.60;;;20.77;;
35306;SDS011;21420;52.196;21.416;2022-11-13T05:27:37;23.62;;;19.35;;
35306;SDS011;21420;52.196;21.416;2022-11-13T05:30:21;25.50;;;20.40;;
35306;SDS011;21420;52.196;21.416;2022-11-13T05:33:06;23.40;;;19.50;;
35306;SDS011;21420;52.196;21.416;2022-11-13T05:35:50;22.70;;;19.60;;
35306;SDS011;21420;52.196;21.416;2022-11-13T05:38:35;24.10;;;19.60;;
35306;SDS011;21420;52.196;21.416;2022-11-13T05:41:20;24.23;;;20.00;;
35306;SDS011;21420;52.196;21.416;2022-11-13T05:44:06;24.23;;;20.27;;
35306;SDS011;21420;52.196;21.416;2022-11-13T05:46:51;24.37;;;19.67;;
35306;SDS011;21420;52.196;21.416;2022-11-13T05:49:35;23.62;;;19.17;;
35306;SDS011;21420;52.196;21.416;2022-11-13T05:52:20;25.88;;;20.48;;
35306;SDS011;21420;52.196;21.416;2022-11-13T05:55:05;23.90;;;20.40;;
35306;SDS011;21420;52.196;21.416;2022-11-13T05:57:51;24.65;;;20.15;;
35306;SDS011;21420;52.196;21.416;2022-11-13T06:00:35;27.05;;;21.07;;
35306;SDS011;21420;52.196;21.416;2022-11-13T06:03:20;27.05;;;19.92;;
35306;SDS011;21420;52.196;21.416;2022-11-13T06:06:06;23.98;;;20.08;;
35306;SDS011;21420;52.196;21.416;2022-11-13T06:08:52;22.15;;;18.62;;
35306;SDS011;21420;52.196;21.416;2022-11-13T06:11:38;26.65;;;21.50;;
35306;SDS011;21420;52.196;21.416;2022-11-13T06:14:22;22.95;;;19.00;;
35306;SDS011;21420;52.196;21.416;2022-11-13T06:17:07;24.63;;;19.15;;
35306;SDS011;21420;52.196;21.416;2022-11-13T06:19:52;22.70;;;18.60;;
35306;SDS011;21420;52.196;21.416;2022-11-13T06:22:36;21.85;;;18.85;;
35306;SDS011;21420;52.196;21.416;2022-11-13T06:25:21;25.45;;;19.62;;
35306;SDS011;21420;52.196;21.416;2022-11-13T06:28:06;24.87;;;19.92;;
35306;SDS011;21420;52.196;21.416;2022-11-13T06:30:51;24.00;;;19.12;;
35306;SDS011;21420;52.196;21.416;2022-11-13T06:33:36;25.27;;;20.10;;
35306;SDS011;21420;52.196;21.416;2022-11-13T06:36:22;25.17;;;20.02;;
35306;SDS011;21420;52.196;21.416;2022-11-13T06:39:10;26.95;;;20.88;;
35306;SDS011;21420;52.196;21.416;2022-11-13T06:41:55;27.73;;;21.10;;
35306;SDS011;21420;52.196;21.416;2022-11-13T06:44:39;28.10;;;21.60;;
35306;SDS011;21420;52.196;21.416;2022-11-13T06:47:24;26.45;;;20.82;;
35306;SDS011;21420;52.196;21.416;2022-11-13T06:50:08;25.57;;;19.98;;
35306;SDS011;21420;52.196;21.416;2022-11-13T06:52:53;24.70;;;20.95;;
35306;SDS011;21420;52.196;21.416;2022-11-13T06:55:42;25.92;;;20.45;;
35306;SDS011;21420;52.196;21.416;2022-11-13T06:58:33;25.85;;;19.55;;
35306;SDS011;21420;52.196;21.416;2022-11-13T07:01:19;24.60;;;20.05;;
35306;SDS011;21420;52.196;21.416;2022-11-13T07:04:07;24.30;;;19.17;;
35306;SDS011;21420;52.196;21.416;2022-11-13T07:06:54;23.70;;;18.98;;
35306;SDS011;21420;52.196;21.416;2022-11-13T07:09:39;23.02;;;18.00;;
35306;SDS011;21420;52.196;21.416;2022-11-13T07:12:24;21.17;;;16.90;;
35306;SDS011;21420;52.196;21.416;2022-11-13T07:15:11;19.52;;;16.17;;
35306;SDS011;21420;52.196;21.416;2022-11-13T07:17:58;21.60;;;16.93;;
35306;SDS011;21420;52.196;21.416;2022-11-13T07:20:44;25.27;;;18.37;;
35306;SDS011;21420;52.196;21.416;2022-11-13T07:23:28;21.77;;;18.23;;
35306;SDS011;21420;52.196;21.416;2022-11-13T07:26:13;19.67;;;16.95;;
35306;SDS011;21420;52.196;21.416;2022-11-13T07:28:57;20.72;;;16.62;;
35306;SDS011;21420;52.196;21.416;2022-11-13T07:31:42;20.45;;;15.95;;
35306;SDS011;21420;52.196;21.416;2022-11-13T07:34:26;19.80;;;15.43;;
35306;SDS011;21420;52.196;21.416;2022-11-13T07:37:11;19.98;;;15.58;;
35306;SDS011;21420;52.196;21.416;2022-11-13T07:39:56;20.52;;;16.77;;
35306;SDS011;21420;52.196;21.416;2022-11-13T07:42:40;19.48;;;16.27;;
35306;SDS011;21420;52.196;21.416;2022-11-13T07:45:25;18.48;;;15.38;;
35306;SDS011;21420;52.196;21.416;2022-11-13T07:48:11;18.48;;;15.58;;
35306;SDS011;21420;52.196;21.416;2022-11-13T07:50:58;19.52;;;15.05;;
35306;SDS011;21420;52.196;21.416;2022-11-13T07:53:46;19.70;;;15.10;;
35306;SDS011;21420;52.196;21.416;2022-11-13T07:56:31;18.35;;;15.05;;
35306;SDS011;21420;52.196;21.416;2022-11-13T07:59:15;20.10;;;15.95;;
35306;SDS011;21420;52.196;21.416;2022-11-13T08:02:00;19.82;;;15.43;;
35306;SDS011;21420;52.196;21.416;2022-11-13T08:04:45;16.42;;;13.93;;
35306;SDS011;21420;52.196;21.416;2022-11-13T08:07:29;17.23;;;13.65;;
35306;SDS011;21420;52.196;21.416;2022-11-13T08:10:14;18.30;;;14.68;;
35306;SDS011;21420;52.196;21.416;2022-11-13T08:13:01;16.73;;;14.63;;
35306;SDS011;21420;52.196;21.416;2022-11-13T08:15:48;16.52;;;14.38;;
35306;SDS011;21420;52.196;21.416;2022-11-13T08:18:33;18.85;;;14.20;;
35306;SDS011;21420;52.196;21.416;2022-11-13T08:21:18;17.98;;;13.78;;
35306;SDS011;21420;52.196;21.416;2022-11-13T08:24:04;18.15;;;14.58;;
35306;SDS011;21420;52.196;21.416;2022-11-13T08:26:49;18.50;;;15.03;;
35306;SDS011;21420;52.196;21.416;2022-11-13T08:29:34;19.32;;;15.03;;
35306;SDS011;21420;52.196;21.416;2022-11-13T08:32:20;18.17;;;15.18;;
35306;SDS011;21420;52.196;21.416;2022-11-13T08:35:05;18.12;;;14.78;;
35306;SDS011;21420;52.196;21.416;2022-11-13T08:37:50;18.17;;;14.40;;
35306;SDS011;21420;52.196;21.416;2022-11-13T08:40:34;19.50;;;15.60;;
35306;SDS011;21420;52.196;21.416;2022-11-13T08:43:20;19.45;;;14.53;;
35306;SDS011;21420;52.196;21.416;2022-11-13T08:46:04;18.45;;;13.40;;
35306;SDS011;21420;52.196;21.416;2022-11-13T08:48:50;20.23;;;14.68;;
35306;SDS011;21420;52.196;21.416;2022-11-13T08:51:34;20.02;;;13.68;;
35306;SDS011;21420;52.196;21.416;2022-11-13T08:54:19;17.32;;;13.55;;
35306;SDS011;21420;52.196;21.416;2022-11-13T08:57:04;17.30;;;13.75;;
35306;SDS011;21420;52.196;21.416;2022-11-13T08:59:48;16.57;;;13.15;;
35306;SDS011;21420;52.196;21.416;2022-11-13T09:02:33;14.65;;;11.83;;
35306;SDS011;21420;52.196;21.416;2022-11-13T09:05:18;14.23;;;11.88;;
35306;SDS011;21420;52.196;21.416;2022-11-13T09:08:03;17.55;;;12.93;;
35306;SDS011;21420;52.196;21.416;2022-11-13T09:10:49;10.80;;;9.68;;
35306;SDS011;21420;52.196;21.416;2022-11-13T09:13:35;11.48;;;9.65;;
35306;SDS011;21420;52.196;21.416;2022-11-13T09:16:20;11.75;;;9.68;;
35306;SDS011;21420;52.196;21.416;2022-11-13T09:19:07;12.07;;;9.80;;
35306;SDS011;21420;52.196;21.416;2022-11-13T09:21:52;11.08;;;8.38;;
35306;SDS011;21420;52.196;21.416;2022-11-13T09:24:36;11.93;;;9.88;;
35306;SDS011;21420;52.196;21.416;2022-11-13T09:27:23;11.65;;;9.70;;
35306;SDS011;21420;52.196;21.416;2022-11-13T09:30:08;13.32;;;9.63;;
35306;SDS011;21420;52.196;21.416;2022-11-13T09:32:55;13.62;;;9.88;;
35306;SDS011;21420;52.196;21.416;2022-11-13T09:35:42;12.68;;;10.55;;
35306;SDS011;21420;52.196;21.416;2022-11-13T09:38:27;13.03;;;10.60;;
35306;SDS011;21420;52.196;21.416;2022-11-13T09:41:16;15.20;;;12.15;;
35306;SDS011;21420;52.196;21.416;2022-11-13T09:44:11;17.67;;;13.20;;
35306;SDS011;21420;52.196;21.416;2022-11-13T09:47:05;15.85;;;13.00;;
35306;SDS011;21420;52.196;21.416;2022-11-13T09:52:51;16.67;;;12.40;;
35306;SDS011;21420;52.196;21.416;2022-11-13T09:55:39;12.80;;;10.60;;
35306;SDS011;21420;52.196;21.416;2022-11-13T09:58:41;12.15;;;9.95;;
35306;SDS011;21420;52.196;21.416;2022-11-13T10:01:32;14.40;;;11.40;;
35306;SDS011;21420;52.196;21.416;2022-11-13T10:14:16;19.60;;;14.18;;
35306;SDS011;21420;52.196;21.416;2022-11-13T10:17:26;17.87;;;12.40;;
35306;SDS011;21420;52.196;21.416;2022-11-13T10:20:40;23.38;;;18.10;;
35306;SDS011;21420;52.196;21.416;2022-11-13T10:23:32;21.07;;;17.10;;
35306;SDS011;21420;52.196;21.416;2022-11-13T10:26:21;17.75;;;12.43;;
35306;SDS011;21420;52.196;21.416;2022-11-13T10:29:12;16.50;;;12.55;;
35306;SDS011;21420;52.196;21.416;2022-11-13T10:32:19;16.30;;;12.03;;
35306;SDS011;21420;52.196;21.416;2022-11-13T10:41:43;12.50;;;10.45;;
35306;SDS011;21420;52.196;21.416;2022-11-13T10:44:36;15.03;;;11.12;;
35306;SDS011;21420;52.196;21.416;2022-11-13T10:47:21;13.93;;;10.78;;
35306;SDS011;21420;52.196;21.416;2022-11-13T10:50:10;13.55;;;10.82;;
35306;SDS011;21420;52.196;21.416;2022-11-13T10:52:58;16.35;;;12.33;;
35306;SDS011;21420;52.196;21.416;2022-11-13T10:55:43;13.93;;;11.18;;
35306;SDS011;21420;52.196;21.416;2022-11-13T10:58:29;15.95;;;11.80;;
35306;SDS011;21420;52.196;21.416;2022-11-13T11:01:22;15.40;;;11.50;;
35306;SDS011;21420;52.196;21.416;2022-11-13T11:04:18;15.95;;;12.13;;
35306;SDS011;21420;52.196;21.416;2022-11-13T11:07:11;17.02;;;12.60;;
35306;SDS011;21420;52.196;21.416;2022-11-13T11:10:18;14.73;;;11.75;;
35306;SDS011;21420;52.196;21.416;2022-11-13T11:13:20;14.03;;;11.97;;
35306;SDS011;21420;52.196;21.416;2022-11-13T11:16:07;17.45;;;13.20;;
35306;SDS011;21420;52.196;21.416;2022-11-13T11:21:44;18.67;;;13.55;;
35306;SDS011;21420;52.196;21.416;2022-11-13T11:24:34;17.82;;;13.45;;
35306;SDS011;21420;52.196;21.416;2022-11-13T11:27:36;16.73;;;12.20;;
35306;SDS011;21420;52.196;21.416;2022-11-13T11:30:30;14.70;;;11.97;;
35306;SDS011;21420;52.196;21.416;2022-11-13T11:36:43;17.48;;;13.83;;
35306;SDS011;21420;52.196;21.416;2022-11-13T11:39:47;19.15;;;14.33;;
35306;SDS011;21420;52.196;21.416;2022-11-13T11:42:43;20.95;;;15.25;;
35306;SDS011;21420;52.196;21.416;2022-11-13T11:45:46;19.95;;;15.13;;
35306;SDS011;21420;52.196;21.416;2022-11-13T11:48:31;18.20;;;14.78;;
35306;SDS011;21420;52.196;21.416;2022-11-13T11:51:25;20.80;;;16.55;;
35306;SDS011;21420;52.196;21.416;2022-11-13T11:54:25;21.73;;;17.17;;
35306;SDS011;21420;52.196;21.416;2022-11-13T12:00:24;23.92;;;17.77;;
35306;SDS011;21420;52.196;21.416;2022-11-13T12:09:55;14.07;;;11.45;;
35306;SDS011;21420;52.196;21.416;2022-11-13T12:13:16;18.40;;;13.75;;
35306;SDS011;21420;52.196;21.416;2022-11-13T12:16:14;16.37;;;13.05;;
35306;SDS011;21420;52.196;21.416;2022-11-13T12:19:27;17.55;;;12.75;;
35306;SDS011;21420;52.196;21.416;2022-11-13T12:26:10;16.10;;;12.00;;
35306;SDS011;21420;52.196;21.416;2022-11-13T12:32:33;17.35;;;12.85;;
35306;SDS011;21420;52.196;21.416;2022-11-13T12:35:21;20.32;;;14.53;;
35306;SDS011;21420;52.196;21.416;2022-11-13T12:41:17;20.45;;;14.50;;
35306;SDS011;21420;52.196;21.416;2022-11-13T12:47:13;16.02;;;12.40;;
35306;SDS011;21420;52.196;21.416;2022-11-13T12:50:00;16.27;;;13.08;;
35306;SDS011;21420;52.196;21.416;2022-11-13T12:53:03;17.05;;;13.22;;
35306;SDS011;21420;52.196;21.416;2022-11-13T12:55:55;17.87;;;13.05;;
35306;SDS011;21420;52.196;21.416;2022-11-13T12:59:00;15.90;;;13.00;;
35306;SDS011;21420;52.196;21.416;2022-11-13T13:02:07;16.75;;;12.82;;
35306;SDS011;21420;52.196;21.416;2022-11-13T13:04:55;15.23;;;12.45;;
35306;SDS011;21420;52.196;21.416;2022-11-13T13:08:24;15.08;;;12.25;;
35306;SDS011;21420;52.196;21.416;2022-11-13T13:11:45;15.18;;;12.40;;
35306;SDS011;21420;52.196;21.416;2022-11-13T13:15:00;15.40;;;10.93;;
35306;SDS011;21420;52.196;21.416;2022-11-13T13:18:09;13.95;;;12.37;;
35306;SDS011;21420;52.196;21.416;2022-11-13T13:21:09;15.85;;;12.20;;
35306;SDS011;21420;52.196;21.416;2022-11-13T13:23:56;14.83;;;12.20;;
35306;SDS011;21420;52.196;21.416;2022-11-13T13:26:53;17.90;;;13.20;;
35306;SDS011;21420;52.196;21.416;2022-11-13T13:29:38;17.00;;;12.53;;
35306;SDS011;21420;52.196;21.416;2022-11-13T13:38:31;18.62;;;13.43;;
35306;SDS011;21420;52.196;21.416;2022-11-13T13:44:45;26.30;;;20.60;;
35306;SDS011;21420;52.196;21.416;2022-11-13T13:47:54;19.90;;;15.90;;
35306;SDS011;21420;52.196;21.416;2022-11-13T13:50:44;20.95;;;17.25;;
35306;SDS011;21420;52.196;21.416;2022-11-13T13:53:33;22.30;;;17.42;;
35306;SDS011;21420;52.196;21.416;2022-11-13T13:56:19;20.88;;;16.82;;
35306;SDS011;21420;52.196;21.416;2022-11-13T13:59:12;18.40;;;14.50;;
35306;SDS011;21420;52.196;21.416;2022-11-13T14:02:12;20.92;;;14.85;;
35306;SDS011;21420;52.196;21.416;2022-11-13T14:04:59;18.98;;;15.20;;
35306;SDS011;21420;52.196;21.416;2022-11-13T14:07:45;20.32;;;14.55;;
35306;SDS011;21420;52.196;21.416;2022-11-13T14:10:29;20.10;;;14.20;;
35306;SDS011;21420;52.196;21.416;2022-11-13T14:13:21;18.73;;;13.85;;
35306;SDS011;21420;52.196;21.416;2022-11-13T14:16:08;19.52;;;15.05;;
35306;SDS011;21420;52.196;21.416;2022-11-13T14:19:01;16.27;;;13.40;;
35306;SDS011;21420;52.196;21.416;2022-11-13T14:21:52;20.72;;;15.68;;
35306;SDS011;21420;52.196;21.416;2022-11-13T14:24:49;20.32;;;15.08;;
35306;SDS011;21420;52.196;21.416;2022-11-13T14:27:42;18.95;;;15.58;;
35306;SDS011;21420;52.196;21.416;2022-11-13T14:30:27;22.45;;;17.57;;
35306;SDS011;21420;52.196;21.416;2022-11-13T14:33:20;23.87;;;17.92;;
35306;SDS011;21420;52.196;21.416;2022-11-13T14:36:06;21.85;;;18.15;;
35306;SDS011;21420;52.196;21.416;2022-11-13T14:38:52;26.20;;;21.40;;
35306;SDS011;21420;52.196;21.416;2022-11-13T14:41:39;28.12;;;22.55;;
35306;SDS011;21420;52.196;21.416;2022-11-13T14:44:31;26.85;;;21.12;;
35306;SDS011;21420;52.196;21.416;2022-11-13T14:47:22;28.47;;;24.07;;
35306;SDS011;21420;52.196;21.416;2022-11-13T14:53:10;28.73;;;25.15;;
35306;SDS011;21420;52.196;21.416;2022-11-13T14:55:59;30.80;;;25.27;;
35306;SDS011;21420;52.196;21.416;2022-11-13T14:58:49;39.27;;;29.85;;
35306;SDS011;21420;52.196;21.416;2022-11-13T15:01:33;34.13;;;24.47;;
35306;SDS011;21420;52.196;21.416;2022-11-13T15:04:19;24.65;;;17.65;;
35306;SDS011;21420;52.196;21.416;2022-11-13T15:07:17;22.25;;;17.70;;
35306;SDS011;21420;52.196;21.416;2022-11-13T15:10:15;24.57;;;17.40;;
35306;SDS011;21420;52.196;21.416;2022-11-13T15:13:08;26.15;;;20.57;;
35306;SDS011;21420;52.196;21.416;2022-11-13T15:15:55;29.32;;;21.07;;
35306;SDS011;21420;52.196;21.416;2022-11-13T15:18:42;31.40;;;23.55;;
35306;SDS011;21420;52.196;21.416;2022-11-13T15:21:31;32.50;;;24.07;;
35306;SDS011;21420;52.196;21.416;2022-11-13T15:24:19;31.95;;;24.15;;
35306;SDS011;21420;52.196;21.416;2022-11-13T15:27:14;33.78;;;23.73;;
35306;SDS011;21420;52.196;21.416;2022-11-13T15:29:58;28.42;;;22.55;;
35306;SDS011;21420;52.196;21.416;2022-11-13T15:32:45;27.60;;;21.25;;
35306;SDS011;21420;52.196;21.416;2022-11-13T15:35:31;30.10;;;21.95;;
35306;SDS011;21420;52.196;21.416;2022-11-13T15:38:16;28.85;;;22.42;;
35306;SDS011;21420;52.196;21.416;2022-11-13T15:41:01;30.48;;;22.87;;
35306;SDS011;21420;52.196;21.416;2022-11-13T15:43:57;27.82;;;23.20;;
35306;SDS011;21420;52.196;21.416;2022-11-13T15:46:43;37.73;;;26.68;;
35306;SDS011;21420;52.196;21.416;2022-11-13T15:49:29;37.75;;;27.07;;
35306;SDS011;21420;52.196;21.416;2022-11-13T15:52:14;36.85;;;27.35;;
35306;SDS011;21420;52.196;21.416;2022-11-13T15:54:59;39.67;;;28.67;;
35306;SDS011;21420;52.196;21.416;2022-11-13T15:57:46;41.98;;;28.85;;
35306;SDS011;21420;52.196;21.416;2022-11-13T16:00:31;41.50;;;28.02;;
35306;SDS011;21420;52.196;21.416;2022-11-13T16:03:17;40.10;;;27.40;;
35306;SDS011;21420;52.196;21.416;2022-11-13T16:06:02;43.70;;;28.20;;
35306;SDS011;21420;52.196;21.416;2022-11-13T16:08:48;43.48;;;26.48;;
35306;SDS011;21420;52.196;21.416;2022-11-13T16:11:35;42.88;;;26.48;;
35306;SDS011;21420;52.196;21.416;2022-11-13T16:14:19;42.17;;;26.20;;
35306;SDS011;21420;52.196;21.416;2022-11-13T16:17:10;40.50;;;26.42;;
35306;SDS011;21420;52.196;21.416;2022-11-13T16:19:59;41.25;;;25.12;;
35306;SDS011;21420;52.196;21.416;2022-11-13T16:22:44;39.75;;;27.20;;
35306;SDS011;21420;52.196;21.416;2022-11-13T16:25:28;40.12;;;28.75;;
35306;SDS011;21420;52.196;21.416;2022-11-13T16:28:14;41.35;;;29.07;;
35306;SDS011;21420;52.196;21.416;2022-11-13T16:31:01;42.27;;;26.97;;
35306;SDS011;21420;52.196;21.416;2022-11-13T16:33:46;39.60;;;28.50;;
35306;SDS011;21420;52.196;21.416;2022-11-13T16:36:31;45.60;;;28.07;;
35306;SDS011;21420;52.196;21.416;2022-11-13T16:39:16;53.45;;;31.12;;
35306;SDS011;21420;52.196;21.416;2022-11-13T16:42:01;49.42;;;30.08;;
35306;SDS011;21420;52.196;21.416;2022-11-13T16:44:47;51.73;;;31.30;;
35306;SDS011;21420;52.196;21.416;2022-11-13T16:47:31;52.85;;;33.05;;
35306;SDS011;21420;52.196;21.416;2022-11-13T16:50:18;49.08;;;31.80;;
35306;SDS011;21420;52.196;21.416;2022-11-13T16:53:07;53.15;;;36.10;;
35306;SDS011;21420;52.196;21.416;2022-11-13T16:55:52;62.38;;;38.23;;
35306;SDS011;21420;52.196;21.416;2022-11-13T16:58:38;69.82;;;44.75;;
35306;SDS011;21420;52.196;21.416;2022-11-13T17:01:22;59.53;;;39.78;;
35306;SDS011;21420;52.196;21.416;2022-11-13T17:04:09;64.62;;;36.85;;
35306;SDS011;21420;52.196;21.416;2022-11-13T17:06:57;58.70;;;37.10;;
35306;SDS011;21420;52.196;21.416;2022-11-13T17:09:43;53.13;;;34.25;;
35306;SDS011;21420;52.196;21.416;2022-11-13T17:12:30;54.38;;;34.35;;
35306;SDS011;21420;52.196;21.416;2022-11-13T17:15:15;59.58;;;37.70;;
35306;SDS011;21420;52.196;21.416;2022-11-13T17:18:02;54.38;;;36.80;;
35306;SDS011;21420;52.196;21.416;2022-11-13T17:20:51;58.02;;;37.08;;